Weather at Narrabri Airport

Public forecast

Using degrees Celsius for public forecast. Weather courtesy of forecast.io.

Current aviation weather report (METAR) for Narrabri Airport

Report is more than 6 hours old.

Retrieved 2022/06/07 22:33 UTC (22 days ago):

YNBR 072233Z AUTO 00000KT 9999 // SCT001 04/03 Q1020

Closest aviation forecast (TAF) to Narrabri Airport

Closest forecast is Tamworth Airport, 69.6 nm (128.8 km) SE. Retrieved 2022/06/30 06:00 UTC (4 hours ago):

TAF YSTW 300528Z 3006/0100 29005KT 9999 SCT040 FM300700 13005KT CAVOK